This is the latest recevied weather packets stored in our database for station/object KD8ZLZ-13. If no packets are shown the sender has not sent any weather packets the latest 10 day(s).
| Time | Temp. | Humidity | Pressure | Rain* | Wind** | Luminosity | Snow |
|---|---|---|---|---|---|---|---|
| 1777409263 | 17.78° C | 59% | 1012.6 hPa | 0 mm | - | 600 W/m² | - |
| 1777408663 | 17.22° C | 60% | 1012.6 hPa | 0 mm | - | 494 W/m² | - |
| 1777408063 | 17.22° C | 59% | 1012.6 hPa | 0 mm | - | 621 W/m² | - |
| 1777407463 | 17.78° C | 60% | 1012.6 hPa | 0 mm | - | 624 W/m² | - |
| 1777406863 | 17.22° C | 59% | 1012.9 hPa | 0 mm | - | 553 W/m² | - |
| 1777406263 | 16.67° C | 61% | 1012.9 hPa | 0 mm | - | 532 W/m² | - |
| 1777405663 | 17.22° C | 62% | 1012.9 hPa | 0 mm | - | 513 W/m² | - |
| 1777405063 | 17.22° C | 60% | 1012.9 hPa | 0 mm | - | 654 W/m² | - |
| 1777404463 | 17.22° C | 60% | 1012.9 hPa | 0 mm | - | 775 W/m² | - |
| 1777403863 | 16.67° C | 62% | 1012.9 hPa | 0 mm | - | 752 W/m² | - |
| 1777403263 | 16.11° C | 63% | 1012.9 hPa | 0 mm | - | 655 W/m² | - |
| 1777397071 | 15.56° C | 69% | 1012.2 hPa | 0 mm | - | 373 W/m² | - |
| 1777396471 | 16.11° C | 69% | 1012.2 hPa | 0 mm | - | 440 W/m² | - |
| 1777395871 | 15.56° C | 68% | 1011.9 hPa | 0 mm | - | 332 W/m² | - |
| 1777395271 | 15.56° C | 66% | 1011.9 hPa | 0 mm | - | 423 W/m² | - |
| 1777394671 | 15.56° C | 66% | 1011.5 hPa | 0 mm | - | 474 W/m² | - |
| 1777394071 | 16.11° C | 67% | 1011.5 hPa | 0 mm | - | 499 W/m² | - |
| 1777393471 | 16.67° C | 66% | 1011.5 hPa | 0 mm | - | 855 W/m² | - |
| 1777392271 | 16.11° C | 67% | 1010.9 hPa | 0 mm | - | 320 W/m² | - |
| 1777391671 | 16.11° C | 69% | 1010.9 hPa | 0 mm | - | 335 W/m² | - |
| 1777391071 | 16.11° C | 70% | 1010.5 hPa | 0 mm | - | 335 W/m² | - |
| 1777390471 | 16.11° C | 70% | 1010.5 hPa | 0 mm | - | 377 W/m² | - |
| 1777389871 | 16.67° C | 69% | 1010.5 hPa | 0 mm | - | 337 W/m² | - |
| 1777389271 | 17.22° C | 69% | 1010.2 hPa | 0 mm | - | 722 W/m² | - |
| 1777388671 | 17.22° C | 72% | 1009.8 hPa | 0 mm | - | 458 W/m² | - |
* Rain latest hour (hover to see other rain measurements)
** Current wind speed in m/s (hover to see current wind gust speed)